createdAt,value
2016-02-25T00:00:48.586Z,1012.33
2016-02-25T00:02:13.652Z,1012.33
2016-02-25T00:02:49.420Z,1012.32
2016-02-25T00:05:03.379Z,1012.27
2016-02-25T00:06:03.381Z,1012.34
2016-02-25T00:07:44.042Z,1012.36
2016-02-25T00:08:37.780Z,1012.3
2016-02-25T00:09:50.533Z,1012.33
2016-02-25T00:11:03.488Z,1012.28
2016-02-25T00:11:37.820Z,1012.28
2016-02-25T00:13:03.509Z,1012.35
2016-02-25T00:13:38.449Z,1012.38
2016-02-25T00:14:41.625Z,1012.33
2016-02-25T00:15:41.627Z,1012.32
2016-02-25T00:16:43.052Z,1012.31
2016-02-25T00:17:46.617Z,1012.31
2016-02-25T00:18:46.619Z,1012.31
2016-02-25T00:20:01.794Z,1012.31
2016-02-25T00:21:01.812Z,1012.3
2016-02-25T00:23:13.536Z,1012.23
2016-02-25T00:24:12.132Z,1012.26
2016-02-25T00:25:31.341Z,1012.22
2016-02-25T00:26:12.154Z,1012.21
2016-02-25T00:27:37.847Z,1012.22
2016-02-25T00:28:21.756Z,1012.2
2016-02-25T00:29:40.976Z,1012.17
2016-02-25T00:30:50.307Z,1012.15
2016-02-25T00:31:37.592Z,1012.17
2016-02-25T00:32:37.595Z,1012.14
2016-02-25T00:33:37.612Z,1012.15
2016-02-25T00:34:56.834Z,1012.18
2016-02-25T00:35:37.634Z,1012.15
2016-02-25T00:37:40.734Z,1012.16
2016-02-25T00:38:40.751Z,1012.14
2016-02-25T00:39:50.504Z,1012.15
2016-02-25T00:40:50.522Z,1012.15
2016-02-25T00:42:09.728Z,1012.16
2016-02-25T00:42:50.544Z,1012.15
2016-02-25T00:44:16.217Z,1012.17
2016-02-25T00:45:09.767Z,1012.13
2016-02-25T00:45:50.567Z,1012.14
2016-02-25T00:47:16.257Z,1012.12
2016-02-25T00:47:50.589Z,1012.1
2016-02-25T00:48:50.606Z,1012.08
2016-02-25T00:49:50.609Z,1012.09
2016-02-25T00:50:50.674Z,1012.07
2016-02-25T00:51:50.630Z,1012.07
2016-02-25T00:52:57.008Z,1012.06
2016-02-25T00:53:50.651Z,1012.11
2016-02-25T00:55:09.888Z,1012.08
2016-02-25T00:55:53.765Z,1012.11
2016-02-25T00:56:53.784Z,1012.03
2016-02-25T00:59:41.167Z,1012.02
2016-02-25T01:00:41.170Z,1012.04
2016-02-25T01:01:52.141Z,1012.03
2016-02-25T01:04:14.646Z,1011.96
2016-02-25T01:05:14.431Z,1011.98
2016-02-25T01:06:27.170Z,1012.01
2016-02-25T01:07:20.720Z,1012
2016-02-25T01:08:40.145Z,1011.98
2016-02-25T01:09:24.022Z,1011.95
2016-02-25T01:11:39.887Z,1011.94
2016-02-25T01:13:49.502Z,1011.95
2016-02-25T01:14:49.520Z,1011.94
2016-02-25T01:16:04.710Z,1011.93
2016-02-25T01:17:04.744Z,1011.92
2016-02-25T01:18:04.716Z,1011.9
2016-02-25T01:19:11.218Z,1011.92
2016-02-25T01:20:04.752Z,1011.87
2016-02-25T01:21:23.961Z,1011.89
2016-02-25T01:22:27.041Z,1011.88
2016-02-25T01:23:07.854Z,1011.88
2016-02-25T01:24:07.872Z,1011.86
2016-02-25T01:25:10.938Z,1011.82
2016-02-25T01:26:11.190Z,1011.84
2016-02-25T01:27:10.958Z,1011.86
2016-02-25T01:28:10.961Z,1011.88
2016-02-25T01:29:20.730Z,1011.81
2016-02-25T01:30:20.716Z,1011.82
2016-02-25T01:31:24.878Z,1011.82
2016-02-25T01:32:24.896Z,1011.78
2016-02-25T01:33:28.212Z,1011.79
2016-02-25T01:34:37.559Z,1011.78
2016-02-25T01:35:37.561Z,1011.81
2016-02-25T01:36:37.782Z,1011.82
2016-02-25T01:37:50.567Z,1011.81
2016-02-25T01:38:37.819Z,1011.81
2016-02-25T01:39:56.806Z,1011.84
2016-02-25T01:40:53.481Z,1011.8
2016-02-25T01:42:06.171Z,1011.72
2016-02-25T01:42:53.439Z,1011.75
2016-02-25T01:43:53.442Z,1011.69
2016-02-25T01:46:28.481Z,1011.72
2016-02-25T01:47:28.483Z,1011.72
2016-02-25T01:48:34.752Z,1011.72
2016-02-25T01:49:28.567Z,1011.68
2016-02-25T01:50:28.758Z,1011.69
2016-02-25T01:51:28.542Z,1011.68
2016-02-25T01:52:34.810Z,1011.64
2016-02-25T01:53:41.281Z,1011.63
2016-02-25T01:54:28.565Z,1011.61
2016-02-25T01:55:28.583Z,1011.63
2016-02-25T01:57:41.838Z,1011.6
2016-02-25T01:58:41.841Z,1011.63
2016-02-25T01:59:52.110Z,1011.62
2016-02-25T02:02:07.396Z,1011.56
2016-02-25T02:03:07.399Z,1011.56
2016-02-25T02:04:07.418Z,1011.52
2016-02-25T02:05:07.436Z,1011.54
2016-02-25T02:06:07.446Z,1011.51
2016-02-25T02:07:07.494Z,1011.5
2016-02-25T02:08:08.077Z,1011.49
2016-02-25T02:09:13.882Z,1011.49
2016-02-25T02:10:07.566Z,1011.51
2016-02-25T02:11:26.711Z,1011.51
2016-02-25T02:12:07.508Z,1011.51
2016-02-25T02:13:07.527Z,1011.48
2016-02-25T02:14:16.888Z,1011.44
2016-02-25T02:15:10.625Z,1011.44
2016-02-25T02:16:10.644Z,1011.46
2016-02-25T02:17:16.913Z,1011.44
2016-02-25T02:18:39.480Z,1011.38
2016-02-25T02:19:39.483Z,1011.38
2016-02-25T02:20:39.502Z,1011.36
2016-02-25T02:21:39.505Z,1011.38
2016-02-25T02:22:39.522Z,1011.37
2016-02-25T02:23:39.774Z,1011.35
2016-02-25T02:24:39.543Z,1011.33
2016-02-25T02:25:39.577Z,1011.34
2016-02-25T02:26:39.564Z,1011.33
2016-02-25T02:28:05.285Z,1011.29
2016-02-25T02:28:52.210Z,1011.33
2016-02-25T02:29:52.213Z,1011.25
2016-02-25T02:30:52.262Z,1011.27
2016-02-25T02:32:01.828Z,1011.32
2016-02-25T02:33:01.831Z,1011.3
2016-02-25T02:34:14.584Z,1011.29
2016-02-25T02:35:01.914Z,1011.3
2016-02-25T02:36:30.654Z,1011.31
2016-02-25T02:37:30.672Z,1011.33
2016-02-25T02:38:31.315Z,1011.35
2016-02-25T02:39:30.693Z,1011.35
2016-02-25T02:40:43.492Z,1011.33
2016-02-25T02:41:43.448Z,1011.29
2016-02-25T02:42:30.733Z,1011.31
2016-02-25T02:43:30.736Z,1011.32
2016-02-25T02:44:30.738Z,1011.32
2016-02-25T02:45:33.927Z,1011.26
2016-02-25T02:46:34.150Z,1011.26
2016-02-25T02:47:40.199Z,1011.26
2016-02-25T02:48:33.952Z,1011.25
2016-02-25T02:49:33.954Z,1011.26
2016-02-25T02:50:33.972Z,1011.24
2016-02-25T02:51:40.241Z,1011.26
2016-02-25T02:52:33.993Z,1011.26
2016-02-25T02:53:33.996Z,1011.24
2016-02-25T02:54:34.046Z,1011.26
2016-02-25T02:55:34.018Z,1011.2
2016-02-25T02:56:46.770Z,1011.23
2016-02-25T02:57:34.038Z,1011.19
2016-02-25T02:58:34.040Z,1011.19
2016-02-25T02:59:34.059Z,1011.19
2016-02-25T03:00:34.061Z,1011.17
2016-02-25T03:01:34.126Z,1011.2
2016-02-25T03:02:34.083Z,1011.19
2016-02-25T03:03:34.101Z,1011.16
2016-02-25T03:04:35.572Z,1011.17
2016-02-25T03:05:34.128Z,1011.17
2016-02-25T03:06:53.333Z,1011.14
2016-02-25T03:07:34.132Z,1011.11
2016-02-25T03:08:34.167Z,1011.1
2016-02-25T03:09:40.435Z,1011.08
2016-02-25T03:10:34.172Z,1011.05
2016-02-25T03:11:53.394Z,1011.07
2016-02-25T03:12:34.208Z,1011.03
2016-02-25T03:13:34.211Z,1011.02
2016-02-25T03:14:35.635Z,1011
2016-02-25T03:17:08.625Z,1010.95
2016-02-25T03:17:49.425Z,1010.97
2016-02-25T03:19:15.115Z,1010.94
2016-02-25T03:19:49.477Z,1010.96
2016-02-25T03:22:04.623Z,1010.91
2016-02-25T03:23:04.627Z,1010.88
2016-02-25T03:24:05.285Z,1010.86
2016-02-25T03:25:04.663Z,1010.86
2016-02-25T03:26:04.665Z,1010.89
2016-02-25T03:27:04.668Z,1010.88
2016-02-25T03:28:20.498Z,1010.89
2016-02-25T03:29:14.236Z,1010.9
2016-02-25T03:30:14.238Z,1010.89
2016-02-25T03:31:14.257Z,1010.87
2016-02-25T03:32:14.275Z,1010.89
2016-02-25T03:33:15.684Z,1010.89
2016-02-25T03:34:14.296Z,1010.87
2016-02-25T03:35:14.299Z,1010.85
2016-02-25T03:36:20.583Z,1010.87
2016-02-25T03:37:15.742Z,1010.87
2016-02-25T03:38:14.339Z,1010.88
2016-02-25T03:39:14.388Z,1010.87
2016-02-25T03:40:27.096Z,1010.85
2016-02-25T03:41:14.361Z,1010.9
2016-02-25T03:42:27.117Z,1010.84
2016-02-25T03:43:37.120Z,1010.9
2016-02-25T03:44:17.886Z,1010.87
2016-02-25T03:45:43.578Z,1010.85
2016-02-25T03:46:27.315Z,1010.85
2016-02-25T03:47:53.021Z,1010.87
2016-02-25T03:48:36.915Z,1010.9
2016-02-25T03:49:36.918Z,1010.88
2016-02-25T03:50:36.920Z,1010.89
2016-02-25T03:51:37.141Z,1010.92
2016-02-25T03:52:49.706Z,1010.94
2016-02-25T03:53:49.694Z,1010.98
2016-02-25T03:54:36.977Z,1010.98
2016-02-25T03:55:36.980Z,1010.95
2016-02-25T03:56:36.998Z,1010.99
2016-02-25T03:57:37.001Z,1010.98
2016-02-25T03:58:37.020Z,1011.02
2016-02-25T03:59:37.022Z,1011.01
2016-02-25T04:00:46.587Z,1011.03
2016-02-25T04:01:46.590Z,1011.01
2016-02-25T04:02:46.609Z,1010.98
2016-02-25T04:04:12.330Z,1011.05
2016-02-25T04:04:56.192Z,1011.06
2016-02-25T04:05:56.228Z,1011.05
2016-02-25T04:06:56.435Z,1011.01
2016-02-25T04:08:15.422Z,1011.03
2016-02-25T04:10:56.258Z,1010.98
2016-02-25T04:11:56.261Z,1011.01
2016-02-25T04:12:56.278Z,1010.99
2016-02-25T04:13:56.281Z,1010.99
2016-02-25T04:14:58.878Z,1011.03
2016-02-25T04:15:58.944Z,1011.02
2016-02-25T04:16:58.899Z,1011.01
2016-02-25T04:17:58.917Z,1010.99
2016-02-25T04:18:58.920Z,1010.98
2016-02-25T04:19:58.939Z,1010.98
2016-02-25T04:21:05.207Z,1010.96
2016-02-25T04:21:58.959Z,1010.96
2016-02-25T04:22:58.962Z,1010.96
2016-02-25T04:24:11.715Z,1010.98
2016-02-25T04:24:58.982Z,1010.95
2016-02-25T04:26:18.204Z,1010.96
2016-02-25T04:26:59.005Z,1010.93
2016-02-25T04:28:18.226Z,1010.94
2016-02-25T04:29:15.384Z,1010.95
2016-02-25T04:30:02.418Z,1010.95
2016-02-25T04:31:02.437Z,1011.01
2016-02-25T04:32:02.439Z,1011.01
2016-02-25T04:33:08.801Z,1011
2016-02-25T04:34:11.914Z,1011.01
2016-02-25T04:35:21.447Z,1011.03
2016-02-25T04:36:30.875Z,1011.02
2016-02-25T04:37:30.878Z,1011.02
2016-02-25T04:38:43.630Z,1011.01
2016-02-25T04:39:43.648Z,1010.99
2016-02-25T04:40:30.917Z,1010.99
2016-02-25T04:41:50.139Z,1010.96
2016-02-25T04:42:30.938Z,1010.95
2016-02-25T04:43:58.893Z,1010.96
2016-02-25T04:45:45.383Z,1010.86
2016-02-25T04:46:45.402Z,1010.88
2016-02-25T04:47:58.139Z,1010.86
2016-02-25T04:48:51.688Z,1010.83
2016-02-25T04:51:03.663Z,1010.81
2016-02-25T04:52:03.884Z,1010.79
2016-02-25T04:53:29.357Z,1010.83
2016-02-25T04:54:13.482Z,1010.82
2016-02-25T04:55:32.457Z,1010.85
2016-02-25T04:56:16.316Z,1010.82
2016-02-25T04:57:37.759Z,1010.81
2016-02-25T04:58:37.762Z,1010.82
2016-02-25T05:00:03.468Z,1010.81
2016-02-25T05:01:13.018Z,1010.81
2016-02-25T05:01:56.973Z,1010.86
2016-02-25T05:03:06.523Z,1010.87
2016-02-25T05:04:15.885Z,1010.86
2016-02-25T05:05:38.203Z,1010.85
2016-02-25T05:06:48.456Z,1010.86
2016-02-25T05:08:34.945Z,1010.87
2016-02-25T05:09:34.948Z,1010.81
2016-02-25T05:12:15.812Z,1010.84
2016-02-25T05:12:50.394Z,1010.86
2016-02-25T05:15:17.712Z,1010.83
2016-02-25T05:16:17.714Z,1010.81
2016-02-25T05:17:30.469Z,1010.84
2016-02-25T05:18:30.488Z,1010.8
2016-02-25T05:19:17.769Z,1010.78
2016-02-25T05:20:36.978Z,1010.75
2016-02-25T05:21:17.775Z,1010.77
2016-02-25T05:23:58.595Z,1010.75
2016-02-25T05:24:45.816Z,1010.73
2016-02-25T05:26:05.022Z,1010.7
2016-02-25T05:26:46.432Z,1010.66
2016-02-25T05:28:11.512Z,1010.69
2016-02-25T05:29:21.062Z,1010.68
2016-02-25T05:30:24.580Z,1010.68
2016-02-25T05:31:05.396Z,1010.65
2016-02-25T05:32:31.072Z,1010.67
2016-02-25T05:33:14.931Z,1010.66
2016-02-25T05:34:17.997Z,1010.62
2016-02-25T05:35:21.984Z,1010.65
2016-02-25T05:36:21.971Z,1010.59
2016-02-25T05:37:49.882Z,1010.61
2016-02-25T05:39:02.839Z,1010.61
2016-02-25T05:39:59.451Z,1010.61
2016-02-25T05:40:46.735Z,1010.6
2016-02-25T05:41:49.815Z,1010.63
2016-02-25T05:43:15.505Z,1010.64
2016-02-25T05:44:56.355Z,1010.62
2016-02-25T05:45:56.373Z,1010.62
2016-02-25T05:47:37.472Z,1010.58
2016-02-25T05:48:37.474Z,1010.56
2016-02-25T05:51:18.621Z,1010.56
2016-02-25T05:51:52.967Z,1010.52
2016-02-25T05:54:08.145Z,1010.5
2016-02-25T05:55:08.162Z,1010.52
2016-02-25T05:56:33.840Z,1010.52
2016-02-25T05:57:49.530Z,1010.56
2016-02-25T05:58:49.533Z,1010.5
2016-02-25T06:00:04.708Z,1010.53
2016-02-25T06:01:30.382Z,1010.53
2016-02-25T06:02:46.262Z,1010.48
2016-02-25T06:03:46.265Z,1010.51
2016-02-25T06:05:01.440Z,1010.52
2016-02-25T06:06:01.443Z,1010.48
2016-02-25T06:07:14.195Z,1010.52
2016-02-25T06:08:01.463Z,1010.5
2016-02-25T06:09:20.684Z,1010.51
2016-02-25T06:10:01.485Z,1010.53
2016-02-25T06:11:27.175Z,1010.47
2016-02-25T06:12:01.521Z,1010.44
2016-02-25T06:14:04.589Z,1010.52
2016-02-25T06:16:20.469Z,1010.48
2016-02-25T06:18:33.056Z,1010.51
2016-02-25T06:19:30.025Z,1010.53
2016-02-25T06:20:30.027Z,1010.5
2016-02-25T06:21:30.061Z,1010.48
2016-02-25T06:22:42.800Z,1010.48
2016-02-25T06:23:30.066Z,1010.45
2016-02-25T06:24:55.759Z,1010.43
2016-02-25T06:25:39.636Z,1010.45
2016-02-25T06:27:05.327Z,1010.47
2016-02-25T06:28:51.817Z,1010.43
2016-02-25T06:29:51.819Z,1010.47
2016-02-25T06:30:51.838Z,1010.47
2016-02-25T06:31:52.449Z,1010.45
2016-02-25T06:33:04.593Z,1010.47
2016-02-25T06:34:04.596Z,1010.47
2016-02-25T06:34:51.879Z,1010.47
2016-02-25T06:36:17.570Z,1010.48
2016-02-25T06:37:01.635Z,1010.49
2016-02-25T06:38:20.856Z,1010.52
2016-02-25T06:39:01.656Z,1010.49
2016-02-25T06:41:42.539Z,1010.51
2016-02-25T06:42:16.867Z,1010.55
2016-02-25T06:43:16.870Z,1010.56
2016-02-25T06:44:17.497Z,1010.59
2016-02-25T06:46:33.522Z,1010.6
2016-02-25T06:47:33.525Z,1010.59
2016-02-25T06:48:33.542Z,1010.56
2016-02-25T06:49:43.170Z,1010.61
2016-02-25T06:50:43.172Z,1010.6
2016-02-25T06:51:52.739Z,1010.58
2016-02-25T06:52:52.725Z,1010.55
2016-02-25T06:54:02.275Z,1010.61
2016-02-25T06:55:02.294Z,1010.59
2016-02-25T06:56:17.576Z,1010.58
2016-02-25T06:57:17.627Z,1010.56
2016-02-25T06:58:17.598Z,1010.58
2016-02-25T06:59:23.861Z,1010.59
2016-02-25T07:00:36.789Z,1010.59
2016-02-25T07:01:33.414Z,1010.61
2016-02-25T07:02:30.136Z,1010.59
2016-02-25T07:03:39.647Z,1010.62
2016-02-25T07:05:05.349Z,1010.64
2016-02-25T07:05:41.087Z,1010.6
2016-02-25T07:07:54.832Z,1010.61
2016-02-25T07:08:54.846Z,1010.63
2016-02-25T07:09:54.847Z,1010.65
2016-02-25T07:10:54.848Z,1010.65
2016-02-25T07:11:55.474Z,1010.61
2016-02-25T07:13:20.553Z,1010.61
2016-02-25T07:13:55.491Z,1010.63
2016-02-25T07:15:20.681Z,1010.62
2016-02-25T07:16:04.557Z,1010.62
2016-02-25T07:17:04.560Z,1010.63
2016-02-25T07:18:10.842Z,1010.65
2016-02-25T07:19:07.548Z,1010.69
2016-02-25T07:20:33.253Z,1010.72
2016-02-25T07:21:07.585Z,1010.72
2016-02-25T07:22:07.587Z,1010.75
2016-02-25T07:23:22.778Z,1010.77
2016-02-25T07:24:22.797Z,1010.72
2016-02-25T07:25:22.798Z,1010.72
2016-02-25T07:26:35.582Z,1010.72
2016-02-25T07:27:22.819Z,1010.73
2016-02-25T07:28:37.996Z,1010.73
2016-02-25T07:29:37.999Z,1010.74
2016-02-25T07:30:38.033Z,1010.74
2016-02-25T07:31:53.099Z,1010.72
2016-02-25T07:32:53.102Z,1010.75
2016-02-25T07:33:53.119Z,1010.69
2016-02-25T07:34:53.138Z,1010.75
2016-02-25T07:35:53.156Z,1010.78
2016-02-25T07:37:12.377Z,1010.81
2016-02-25T07:37:53.177Z,1010.81
2016-02-25T07:39:18.868Z,1010.8
2016-02-25T07:40:02.792Z,1010.79
2016-02-25T07:41:02.795Z,1010.84
2016-02-25T07:42:02.812Z,1010.82
2016-02-25T07:43:28.503Z,1010.83
2016-02-25T07:44:18.740Z,1010.79
2016-02-25T07:45:41.167Z,1010.85
2016-02-25T07:46:41.154Z,1010.86
2016-02-25T07:47:41.173Z,1010.82
2016-02-25T07:49:06.863Z,1010.86
2016-02-25T07:49:53.772Z,1010.87
2016-02-25T07:51:09.961Z,1010.85
2016-02-25T07:51:50.887Z,1010.86
2016-02-25T07:53:16.452Z,1010.93
2016-02-25T07:54:00.564Z,1010.91
2016-02-25T07:55:19.550Z,1010.9
2016-02-25T07:56:34.741Z,1010.92
2016-02-25T07:57:34.760Z,1010.93
2016-02-25T07:58:34.762Z,1010.96
2016-02-25T07:59:34.797Z,1010.95
2016-02-25T08:00:34.799Z,1010.97
2016-02-25T08:01:34.833Z,1010.96
2016-02-25T08:02:36.241Z,1010.97
2016-02-25T08:03:47.575Z,1011
2016-02-25T08:04:34.857Z,1011.03
2016-02-25T08:05:47.596Z,1011.02
2016-02-25T08:06:36.299Z,1011.01
2016-02-25T08:08:00.664Z,1010.97
2016-02-25T08:08:34.898Z,1011
2016-02-25T08:10:00.638Z,1010.97
2016-02-25T08:10:50.782Z,1010.97
2016-02-25T08:11:50.800Z,1010.96
2016-02-25T08:12:50.818Z,1010.99
2016-02-25T08:13:50.821Z,1010.98
2016-02-25T08:15:10.042Z,1011.02
2016-02-25T08:15:50.857Z,1010.99
2016-02-25T08:17:16.594Z,1010.98
2016-02-25T08:17:50.878Z,1011.01
2016-02-25T08:19:50.914Z,1011.03
2016-02-25T08:20:50.934Z,1011.05
2016-02-25T08:21:52.373Z,1011.02
2016-02-25T08:22:50.955Z,1011.09
2016-02-25T08:23:50.988Z,1011.08
2016-02-25T08:25:03.725Z,1011.05
2016-02-25T08:26:51.012Z,1011.07
2016-02-25T08:27:51.047Z,1011.08
2016-02-25T08:29:16.736Z,1011.07
2016-02-25T08:31:10.351Z,1011.09
2016-02-25T08:32:10.369Z,1011.1
2016-02-25T08:33:10.402Z,1011.12
2016-02-25T08:34:16.671Z,1011.12
2016-02-25T08:35:10.408Z,1011.08
2016-02-25T08:36:16.708Z,1011.06
2016-02-25T08:37:10.446Z,1011.07
2016-02-25T08:38:10.464Z,1011.06
2016-02-25T08:39:10.482Z,1011.1
2016-02-25T08:40:10.501Z,1011.11
2016-02-25T08:41:10.519Z,1011.12
2016-02-25T08:42:10.521Z,1011.12
2016-02-25T08:43:10.539Z,1011.12
2016-02-25T08:44:10.558Z,1011.18
2016-02-25T08:45:10.576Z,1011.16
2016-02-25T08:46:10.626Z,1011.21
2016-02-25T08:47:23.332Z,1011.19
2016-02-25T08:48:10.615Z,1011.23
2016-02-25T08:49:10.634Z,1011.25
2016-02-25T08:50:29.855Z,1011.24
2016-02-25T08:51:10.670Z,1011.26
2016-02-25T08:52:10.689Z,1011.26
2016-02-25T08:53:16.972Z,1011.24
2016-02-25T08:54:10.725Z,1011.24
2016-02-25T08:55:23.462Z,1011.27
2016-02-25T08:56:10.747Z,1011.26
2016-02-25T08:57:10.765Z,1011.25
2016-02-25T08:58:23.517Z,1011.23
2016-02-25T08:59:10.786Z,1011.24
2016-02-25T09:00:10.819Z,1011.27
2016-02-25T09:01:13.885Z,1011.24
2016-02-25T09:02:13.919Z,1011.24
2016-02-25T09:03:18.718Z,1011.28
2016-02-25T09:04:44.411Z,1011.23
2016-02-25T09:05:28.271Z,1011.23
2016-02-25T09:06:37.852Z,1011.28
2016-02-25T09:07:47.435Z,1011.28
2016-02-25T09:09:13.109Z,1011.29
2016-02-25T09:10:26.362Z,1011.28
2016-02-25T09:13:04.214Z,1011.21
2016-02-25T09:13:38.557Z,1011.19
2016-02-25T09:15:48.112Z,1011.25
2016-02-25T09:18:00.696Z,1011.22
2016-02-25T09:18:57.699Z,1011.22
2016-02-25T09:20:07.890Z,1011.25
2016-02-25T09:21:01.642Z,1011.23
2016-02-25T09:22:16.817Z,1011.25
2016-02-25T09:23:16.882Z,1011.24
2016-02-25T09:24:16.837Z,1011.26
2016-02-25T09:25:32.106Z,1011.26
2016-02-25T09:26:32.125Z,1011.22
2016-02-25T09:27:44.908Z,1011.19
2016-02-25T09:28:32.770Z,1011.17
2016-02-25T09:29:44.914Z,1011.22
2016-02-25T09:30:32.823Z,1011.2
2016-02-25T09:32:32.469Z,1011.17
2016-02-25T09:33:32.237Z,1011.17
2016-02-25T09:34:32.255Z,1011.14
2016-02-25T09:35:32.525Z,1011.16
2016-02-25T09:36:32.308Z,1011.13
2016-02-25T09:37:45.045Z,1011.15
2016-02-25T09:38:32.360Z,1011.11
2016-02-25T09:39:58.021Z,1011.11
2016-02-25T09:40:32.365Z,1011.12
2016-02-25T09:41:32.383Z,1011.14
2016-02-25T09:42:41.933Z,1011.13
2016-02-25T09:43:41.967Z,1011.14
2016-02-25T09:44:41.985Z,1011.13
2016-02-25T09:45:54.722Z,1011.13
2016-02-25T09:46:42.007Z,1011.1
2016-02-25T09:48:01.355Z,1011.11
2016-02-25T09:48:42.480Z,1011.16
2016-02-25T09:50:57.252Z,1011.27
2016-02-25T09:52:22.929Z,1011.28
2016-02-25T09:53:32.744Z,1011.21
2016-02-25T09:54:42.607Z,1011.31
2016-02-25T09:55:52.874Z,1011.27
2016-02-25T09:56:36.736Z,1011.16
2016-02-25T09:57:39.834Z,1011.22
2016-02-25T09:58:49.617Z,1011.22
2016-02-25T09:59:49.635Z,1011.18
2016-02-25T10:01:02.625Z,1011.18
2016-02-25T10:03:04.865Z,1011.17
2016-02-25T10:04:30.617Z,1011.2
2016-02-25T10:05:21.058Z,1011.16
2016-02-25T10:06:33.670Z,1011.17
2016-02-25T10:07:22.422Z,1011.12
2016-02-25T10:08:20.988Z,1011.14
2016-02-25T10:09:20.991Z,1011.19
2016-02-25T10:11:36.417Z,1011.21
2016-02-25T10:12:36.436Z,1011.25
2016-02-25T10:15:53.132Z,1011.2
2016-02-25T10:16:53.118Z,1011.27
2016-02-25T10:18:08.624Z,1011.2
2016-02-25T10:19:08.627Z,1011.28
2016-02-25T10:21:51.132Z,1011.28
2016-02-25T10:22:25.494Z,1011.31
2016-02-25T10:24:40.702Z,1011.33
2016-02-25T10:25:40.721Z,1011.37
2016-02-25T10:26:40.739Z,1011.32
2016-02-25T10:27:40.757Z,1011.33
2016-02-25T10:28:40.776Z,1011.37
2016-02-25T10:29:40.794Z,1011.37
2016-02-25T10:30:40.797Z,1011.36
2016-02-25T10:31:40.815Z,1011.3
2016-02-25T10:32:40.849Z,1011.28
2016-02-25T10:33:40.851Z,1011.31
2016-02-25T10:34:40.870Z,1011.33
2016-02-25T10:35:40.889Z,1011.36
2016-02-25T10:36:41.109Z,1011.35
2016-02-25T10:37:53.659Z,1011.29
2016-02-25T10:38:47.193Z,1011.29
2016-02-25T10:40:06.636Z,1011.29
2016-02-25T10:41:15.967Z,1011.28
2016-02-25T10:42:28.720Z,1011.32
2016-02-25T10:43:18.879Z,1011.3
2016-02-25T10:44:18.881Z,1011.29
2016-02-25T10:45:18.900Z,1011.31
2016-02-25T10:46:28.466Z,1011.29
2016-02-25T10:47:54.155Z,1011.29
2016-02-25T10:49:09.457Z,1011.32
2016-02-25T10:50:22.116Z,1011.28
2016-02-25T10:51:09.400Z,1011.31
2016-02-25T10:52:24.560Z,1011.37
2016-02-25T10:53:24.577Z,1011.31
2016-02-25T10:54:25.205Z,1011.36
2016-02-25T10:55:40.379Z,1011.31
2016-02-25T10:56:40.398Z,1011.35
2016-02-25T10:57:40.401Z,1011.39
2016-02-25T10:58:41.043Z,1011.38
2016-02-25T10:59:53.391Z,1011.44
2016-02-25T11:00:53.190Z,1011.45
2016-02-25T11:01:40.474Z,1011.49
2016-02-25T11:03:06.165Z,1011.53
2016-02-25T11:04:17.123Z,1011.46
2016-02-25T11:04:51.467Z,1011.43
2016-02-25T11:06:17.160Z,1011.44
2016-02-25T11:07:01.051Z,1011.45
2016-02-25T11:08:10.587Z,1011.35
2016-02-25T11:09:10.606Z,1011.38
2016-02-25T11:10:29.827Z,1011.39
2016-02-25T11:11:26.455Z,1011.38
2016-02-25T11:12:52.129Z,1011.35
2016-02-25T11:13:39.398Z,1011.39
2016-02-25T11:14:55.604Z,1011.37
2016-02-25T11:15:49.153Z,1011.36
2016-02-25T11:16:36.422Z,1011.33
2016-02-25T11:17:57.878Z,1011.31
2016-02-25T11:19:17.305Z,1011.38
2016-02-25T11:22:23.563Z,1011.34
2016-02-25T11:24:18.084Z,1011.28
2016-02-25T11:26:17.153Z,1011.34
2016-02-25T11:27:17.170Z,1011.36
2016-02-25T11:28:42.861Z,1011.35
2016-02-25T11:29:23.722Z,1011.32
2016-02-25T11:31:35.446Z,1011.33
2016-02-25T11:32:35.465Z,1011.29
2016-02-25T11:33:38.530Z,1011.28
2016-02-25T11:34:38.549Z,1011.27
2016-02-25T11:36:00.863Z,1011.22
2016-02-25T11:37:13.619Z,1011.27
2016-02-25T11:38:00.900Z,1011.23
2016-02-25T11:39:20.141Z,1011.27
2016-02-25T11:40:04.469Z,1011.31
2016-02-25T11:41:30.161Z,1011.25
2016-02-25T11:42:17.227Z,1011.25
2016-02-25T11:43:04.524Z,1011.27
2016-02-25T11:44:20.013Z,1011.27
2016-02-25T11:45:20.063Z,1011.21
2016-02-25T11:47:36.662Z,1011.13
2016-02-25T11:48:36.711Z,1011.12
2016-02-25T11:50:02.370Z,1011.15
2016-02-25T11:50:46.342Z,1011.14
2016-02-25T11:52:05.501Z,1011.19
2016-02-25T11:52:52.440Z,1011.18
2016-02-25T11:54:07.647Z,1011.16
2016-02-25T11:55:07.680Z,1011.15
2016-02-25T11:56:20.436Z,1011.17
2016-02-25T11:57:20.454Z,1011.13
2016-02-25T11:58:07.720Z,1011.2
2016-02-25T11:59:33.413Z,1011.15
2016-02-25T12:00:07.756Z,1011.07
2016-02-25T12:02:20.452Z,1011.1
2016-02-25T12:05:01.394Z,1011.06
2016-02-25T12:06:27.072Z,1010.96
2016-02-25T12:07:11.197Z,1011.06
2016-02-25T12:08:52.688Z,1011.08
2016-02-25T12:09:33.502Z,1011.07
2016-02-25T12:12:48.886Z,1011.1
2016-02-25T12:13:48.919Z,1011.06
2016-02-25T12:14:48.922Z,1011.09
2016-02-25T12:15:49.550Z,1010.98
2016-02-25T12:16:48.974Z,1010.97
2016-02-25T12:17:48.977Z,1011.02
2016-02-25T12:18:49.605Z,1011.03
2016-02-25T12:19:49.013Z,1011.02
2016-02-25T12:22:29.959Z,1011.03
2016-02-25T12:23:04.271Z,1010.96
2016-02-25T12:25:15.245Z,1011.03
2016-02-25T12:27:24.878Z,1010.95
2016-02-25T12:28:25.147Z,1010.93
2016-02-25T12:29:40.337Z,1010.93
2016-02-25T12:30:40.356Z,1010.95
2016-02-25T12:31:53.109Z,1010.92
2016-02-25T12:32:40.392Z,1010.89
2016-02-25T12:33:59.630Z,1010.9
2016-02-25T12:34:43.741Z,1010.88
2016-02-25T12:36:09.431Z,1010.9
2016-02-25T12:37:20.419Z,1010.87
2016-02-25T12:39:35.661Z,1010.88
2016-02-25T12:41:01.336Z,1010.85
2016-02-25T12:42:48.029Z,1010.88
2016-02-25T12:43:48.047Z,1010.84
2016-02-25T12:44:48.659Z,1010.81
2016-02-25T12:46:00.818Z,1010.86
2016-02-25T12:47:00.835Z,1010.86
2016-02-25T12:48:13.792Z,1010.82
2016-02-25T12:49:16.873Z,1010.83
2016-02-25T12:54:07.621Z,1010.82
2016-02-25T12:55:17.218Z,1010.78
2016-02-25T12:56:17.470Z,1010.8
2016-02-25T12:57:17.254Z,1010.78
2016-02-25T12:58:42.931Z,1010.78
2016-02-25T12:59:33.090Z,1010.74
2016-02-25T13:00:26.840Z,1010.74
2016-02-25T13:03:01.239Z,1010.71
2016-02-25T13:04:01.257Z,1010.71
2016-02-25T13:05:01.275Z,1010.65
2016-02-25T13:06:14.028Z,1010.73
2016-02-25T13:07:01.562Z,1010.7
2016-02-25T13:08:20.533Z,1010.75
2016-02-25T13:09:27.020Z,1010.74
2016-02-25T13:10:36.650Z,1010.77
2016-02-25T13:12:11.217Z,1010.74
2016-02-25T13:13:11.235Z,1010.66
2016-02-25T13:15:43.633Z,1010.71
2016-02-25T13:16:43.652Z,1010.71
2016-02-25T13:17:58.842Z,1010.64
2016-02-25T13:18:58.922Z,1010.66
2016-02-25T13:20:11.660Z,1010.67
2016-02-25T13:20:58.913Z,1010.69
2016-02-25T13:22:24.837Z,1010.65
2016-02-25T13:23:12.465Z,1010.74
2016-02-25T13:24:09.435Z,1010.74
2016-02-25T13:25:09.485Z,1010.76
2016-02-25T13:27:24.912Z,1010.74
2016-02-25T13:28:24.713Z,1010.77
2016-02-25T13:29:37.451Z,1010.69
2016-02-25T13:30:24.733Z,1010.69
2016-02-25T13:31:43.973Z,1010.71
2016-02-25T13:32:35.600Z,1010.7
2016-02-25T13:34:48.231Z,1010.69
2016-02-25T13:35:45.218Z,1010.66
2016-02-25T13:37:00.487Z,1010.68
2016-02-25T13:38:00.505Z,1010.68
2016-02-25T13:39:00.758Z,1010.67
2016-02-25T13:40:06.807Z,1010.66
2016-02-25T13:41:06.872Z,1010.69
2016-02-25T13:42:19.781Z,1010.68
2016-02-25T13:43:19.831Z,1010.67
2016-02-25T13:44:26.521Z,1010.62
2016-02-25T13:45:00.633Z,1010.6
2016-02-25T13:47:35.938Z,1010.57
2016-02-25T13:49:51.209Z,1010.6
2016-02-25T13:50:51.212Z,1010.62
2016-02-25T13:51:54.324Z,1010.6
2016-02-25T13:52:57.655Z,1010.66
2016-02-25T13:54:23.391Z,1010.59
2016-02-25T13:57:45.199Z,1010.6
2016-02-25T13:58:51.468Z,1010.61
2016-02-25T13:59:45.220Z,1010.63
2016-02-25T14:00:55.348Z,1010.64
2016-02-25T14:01:55.632Z,1010.64
2016-02-25T14:03:11.697Z,1010.63